Terminal Aerodrome Forecast
Issued by NWS Wilmington, NC

Home | Current Version | Previous Version | Text Only | Print | Product List | Glossary On
Versions: 1 2 3 4 5 6 7 8 9 10 11 12 13 14 15 16 17 18
000
FTUS42 KILM 231137
TAFFLO
TAF
KFLO 231137Z 2312/2412 06007KT P6SM OVC010
      TEMPO 2312/2315 OVC008
     FM231900 09009KT P6SM BKN010
      TEMPO 2319/2321 3SM -SHRA OVC005
     FM232100 12008KT P6SM -SHRA BKN015
     FM240000 11008KT 3SM SHRA OVC030=

USA.gov is the U.S. government's official web portal to all federal, state and local government web resources and services.